createdAt,value
2018-06-18T00:01:21.807Z,78.70
2018-06-18T00:06:19.555Z,77.90
2018-06-18T00:08:48.369Z,78.10
2018-06-18T00:11:17.061Z,77.60
2018-06-18T00:13:46.223Z,77.40
2018-06-18T00:16:14.957Z,77.40
2018-06-18T00:18:43.895Z,77.00
2018-06-18T00:21:12.827Z,77.50
2018-06-18T00:26:10.761Z,77.10
2018-06-18T00:28:39.585Z,77.00
2018-06-18T00:31:09.333Z,76.90
2018-06-18T00:33:38.169Z,76.50
2018-06-18T00:36:07.127Z,76.60
2018-06-18T00:38:36.025Z,76.40
2018-06-18T00:41:09.044Z,77.00
2018-06-18T00:43:38.061Z,76.90
2018-06-18T00:46:06.979Z,76.80
2018-06-18T00:48:35.873Z,76.40
2018-06-18T00:51:04.761Z,76.10
2018-06-18T00:53:33.641Z,76.10
2018-06-18T00:56:11.606Z,76.10
2018-06-18T00:58:41.116Z,76.10
2018-06-18T01:01:10.760Z,76.30
2018-06-18T01:03:39.669Z,76.20
2018-06-18T01:06:08.709Z,76.50
2018-06-18T01:08:37.662Z,76.30
2018-06-18T01:11:06.840Z,76.30
2018-06-18T01:13:35.627Z,76.20
2018-06-18T01:18:32.951Z,76.40
2018-06-18T01:21:01.953Z,76.90
2018-06-18T01:24:11.307Z,76.40
2018-06-18T01:26:40.123Z,76.30
2018-06-18T01:31:37.623Z,76.40
2018-06-18T01:34:13.405Z,76.30
2018-06-18T01:36:42.248Z,76.10
2018-06-18T01:39:11.092Z,76.10
2018-06-18T01:41:40.053Z,76.40
2018-06-18T01:44:08.945Z,75.80
2018-06-18T01:46:37.767Z,76.60
2018-06-18T01:51:35.191Z,77.10
2018-06-18T01:54:03.997Z,77.30
2018-06-18T01:56:32.817Z,77.50
2018-06-18T01:59:01.634Z,77.80
2018-06-18T02:01:30.959Z,78.10
2018-06-18T02:03:59.906Z,77.80
2018-06-18T02:06:28.651Z,77.60
2018-06-18T02:08:57.550Z,77.70
2018-06-18T02:11:26.389Z,78.00
2018-06-18T02:13:55.295Z,77.50
2018-06-18T02:16:24.138Z,77.70
2018-06-18T02:18:53.094Z,78.00
2018-06-18T02:21:22.528Z,77.90
2018-06-18T02:23:51.368Z,78.40
2018-06-18T02:26:20.296Z,78.30
2018-06-18T02:28:54.440Z,78.80
2018-06-18T02:31:28.891Z,79.30
2018-06-18T02:34:02.976Z,80.20
2018-06-18T02:36:37.435Z,80.00
2018-06-18T02:39:10.073Z,80.10
2018-06-18T02:42:01.802Z,79.60
2018-06-18T02:44:30.606Z,79.30
2018-06-18T02:46:59.409Z,79.50
2018-06-18T02:49:28.153Z,79.30
2018-06-18T02:51:56.977Z,79.30
2018-06-18T02:54:25.851Z,79.60
2018-06-18T02:56:58.397Z,79.60
2018-06-18T02:59:27.319Z,79.90
2018-06-18T03:01:56.099Z,80.00
2018-06-18T03:04:25.206Z,79.40
2018-06-18T03:06:54.008Z,80.20
2018-06-18T03:09:22.831Z,80.30
2018-06-18T03:11:51.652Z,80.10
2018-06-18T03:14:20.594Z,80.10
2018-06-18T03:16:49.400Z,80.40
2018-06-18T03:19:23.517Z,80.90
2018-06-18T03:21:57.503Z,81.10
2018-06-18T03:24:31.512Z,80.90
2018-06-18T03:27:06.655Z,81.20
2018-06-18T03:29:36.244Z,81.20
2018-06-18T03:32:09.392Z,81.40
2018-06-18T03:34:38.249Z,81.90
2018-06-18T03:37:08.835Z,81.40
2018-06-18T03:39:37.776Z,81.90
2018-06-18T03:42:07.158Z,81.80
2018-06-18T03:44:39.806Z,82.10
2018-06-18T03:47:16.338Z,82.00
2018-06-18T03:49:45.232Z,82.20
2018-06-18T03:52:13.999Z,82.10
2018-06-18T03:54:42.803Z,82.20
2018-06-18T03:57:11.666Z,82.30
2018-06-18T03:59:40.526Z,82.00
2018-06-18T04:02:22.428Z,82.10
2018-06-18T04:04:58.762Z,81.50
2018-06-18T04:07:33.755Z,81.60
2018-06-18T04:12:36.870Z,80.30
2018-06-18T04:15:05.790Z,80.30
2018-06-18T04:17:34.724Z,80.50
2018-06-18T04:20:03.668Z,79.10
2018-06-18T04:22:32.530Z,78.80
2018-06-18T04:25:01.355Z,79.10
2018-06-18T04:27:30.226Z,78.90
2018-06-18T04:29:59.135Z,78.70
2018-06-18T04:32:27.941Z,78.60
2018-06-18T04:35:00.954Z,79.10
2018-06-18T04:37:29.912Z,78.20
2018-06-18T04:39:58.744Z,78.20
2018-06-18T04:42:32.799Z,77.50
2018-06-18T04:45:06.724Z,77.10
2018-06-18T04:47:40.752Z,77.10
2018-06-18T04:50:14.800Z,76.10
2018-06-18T04:52:43.984Z,75.90
2018-06-18T04:55:12.830Z,75.10
2018-06-18T04:57:41.668Z,74.90
2018-06-18T05:02:44.302Z,74.80
2018-06-18T05:05:13.116Z,74.30
2018-06-18T05:07:42.103Z,74.80
2018-06-18T05:10:23.238Z,74.90
2018-06-18T05:12:52.210Z,75.10
2018-06-18T05:15:26.196Z,75.00
2018-06-18T05:17:55.071Z,74.10
2018-06-18T05:20:24.676Z,73.70
2018-06-18T05:22:53.774Z,73.20
2018-06-18T05:25:22.667Z,72.10
2018-06-18T05:27:53.459Z,72.80
2018-06-18T05:30:30.942Z,73.10
2018-06-18T05:38:05.495Z,74.30
2018-06-18T05:40:34.254Z,72.10
2018-06-18T05:43:03.209Z,73.00
2018-06-18T05:45:31.985Z,73.50
2018-06-18T05:48:01.151Z,72.80
2018-06-18T05:50:30.119Z,72.20
2018-06-18T05:52:59.761Z,71.80
2018-06-18T05:55:28.634Z,72.40
2018-06-18T05:57:57.619Z,71.70
2018-06-18T06:00:26.441Z,72.00
2018-06-18T06:02:55.345Z,71.90
2018-06-18T06:05:24.085Z,72.80
2018-06-18T06:07:52.932Z,71.90
2018-06-18T06:10:21.745Z,72.40
2018-06-18T06:12:50.582Z,71.80
2018-06-18T06:15:19.431Z,71.00
2018-06-18T06:17:48.308Z,70.50
2018-06-18T06:20:17.325Z,70.60
2018-06-18T06:22:46.188Z,69.90
2018-06-18T06:25:15.105Z,69.70
2018-06-18T06:27:46.347Z,68.50
2018-06-18T06:30:15.390Z,68.50
2018-06-18T06:32:44.266Z,68.10
2018-06-18T06:35:22.575Z,66.60
2018-06-18T06:37:51.491Z,65.50
2018-06-18T06:40:20.317Z,65.10
2018-06-18T06:42:49.245Z,65.00
2018-06-18T06:45:18.195Z,63.80
2018-06-18T06:47:46.985Z,61.50
2018-06-18T06:50:15.955Z,60.30
2018-06-18T06:52:44.811Z,55.30
2018-06-18T06:55:13.487Z,54.80
2018-06-18T06:57:42.277Z,54.40
2018-06-18T07:00:10.995Z,54.70
2018-06-18T07:02:39.877Z,53.10
2018-06-18T07:05:08.707Z,52.70
2018-06-18T07:07:37.657Z,53.70
2018-06-18T07:10:06.431Z,55.80
2018-06-18T07:15:03.829Z,51.60
2018-06-18T07:17:32.568Z,53.00
2018-06-18T07:20:01.586Z,53.80
2018-06-18T07:22:30.418Z,54.50
2018-06-18T07:24:59.217Z,51.00
2018-06-18T07:27:27.997Z,50.30
2018-06-18T07:29:56.798Z,52.30
2018-06-18T07:32:25.724Z,52.30
2018-06-18T07:34:54.493Z,53.40
2018-06-18T07:37:23.392Z,51.80
2018-06-18T07:39:53.460Z,52.70
2018-06-18T07:42:22.234Z,53.60
2018-06-18T07:44:51.112Z,54.00
2018-06-18T07:47:19.869Z,53.90
2018-06-18T07:49:48.757Z,54.00
2018-06-18T07:52:17.655Z,53.90
2018-06-18T07:54:46.470Z,52.20
2018-06-18T07:57:15.260Z,53.00
2018-06-18T07:59:44.208Z,50.90
2018-06-18T08:02:13.409Z,51.70
2018-06-18T08:04:42.209Z,50.60
2018-06-18T08:07:10.992Z,52.00
2018-06-18T08:09:39.967Z,51.50
2018-06-18T08:12:09.002Z,50.10
2018-06-18T08:14:37.785Z,50.20
2018-06-18T08:17:06.572Z,49.20
2018-06-18T08:19:35.382Z,50.50
2018-06-18T08:22:04.202Z,50.70
2018-06-18T08:24:33.056Z,49.80
2018-06-18T08:27:02.176Z,50.70
2018-06-18T08:29:31.127Z,50.20
2018-06-18T08:32:00.045Z,50.40
2018-06-18T08:34:28.936Z,49.00
2018-06-18T08:36:57.914Z,50.30
2018-06-18T08:39:26.784Z,49.60
2018-06-18T08:41:55.696Z,50.70
2018-06-18T08:44:24.543Z,48.50
2018-06-18T08:46:53.628Z,49.70
2018-06-18T08:49:22.834Z,51.00
2018-06-18T08:51:56.830Z,50.10
2018-06-18T08:54:30.879Z,50.50
2018-06-18T08:57:05.064Z,50.10
2018-06-18T08:59:39.317Z,49.30
2018-06-18T09:02:08.286Z,50.00
2018-06-18T09:04:42.425Z,50.40
2018-06-18T09:07:11.312Z,51.00
2018-06-18T09:09:40.240Z,50.50
2018-06-18T09:12:08.690Z,51.20
2018-06-18T09:14:37.808Z,50.40
2018-06-18T09:17:06.776Z,50.70
2018-06-18T09:19:36.634Z,51.60
2018-06-18T09:22:05.960Z,51.90
2018-06-18T09:24:35.225Z,51.50
2018-06-18T09:27:09.391Z,51.80
2018-06-18T09:29:38.236Z,51.50
2018-06-18T09:32:11.213Z,50.60
2018-06-18T09:34:40.008Z,51.60
2018-06-18T09:37:09.364Z,53.40
2018-06-18T09:39:38.261Z,50.50
2018-06-18T09:42:07.375Z,51.10
2018-06-18T09:44:36.253Z,51.00
2018-06-18T09:47:05.092Z,50.40
2018-06-18T09:49:39.263Z,49.70
2018-06-18T09:52:13.244Z,50.50
2018-06-18T09:54:47.382Z,49.00
2018-06-18T09:57:28.050Z,48.90
2018-06-18T10:00:03.596Z,47.50
2018-06-18T10:02:32.489Z,47.90
2018-06-18T10:05:01.366Z,47.10
2018-06-18T10:07:30.249Z,47.60
2018-06-18T10:09:59.061Z,48.90
2018-06-18T10:12:28.085Z,50.60
2018-06-18T10:14:57.041Z,50.00
2018-06-18T10:17:26.403Z,51.10
2018-06-18T10:19:55.324Z,50.70
2018-06-18T10:22:24.351Z,50.60
2018-06-18T10:24:53.902Z,50.30
2018-06-18T10:27:22.731Z,50.60
2018-06-18T10:29:51.558Z,51.20
2018-06-18T10:32:25.526Z,49.90
2018-06-18T10:34:59.590Z,48.90
2018-06-18T10:37:33.597Z,49.00
2018-06-18T10:40:07.525Z,48.50
2018-06-18T10:42:42.186Z,48.30
2018-06-18T10:47:39.582Z,50.60
2018-06-18T10:50:08.456Z,50.20
2018-06-18T10:52:37.983Z,51.20
2018-06-18T10:55:06.833Z,49.20
2018-06-18T10:57:35.815Z,51.20
2018-06-18T11:00:06.979Z,50.00
2018-06-18T11:02:35.883Z,50.90
2018-06-18T11:05:04.705Z,49.60
2018-06-18T11:07:33.807Z,50.60
2018-06-18T11:10:02.782Z,49.20
2018-06-18T11:12:31.717Z,50.00
2018-06-18T11:15:00.607Z,49.70
2018-06-18T11:17:34.923Z,49.20
2018-06-18T11:20:09.252Z,50.80
2018-06-18T11:22:43.379Z,51.20
2018-06-18T11:25:17.410Z,51.10
2018-06-18T11:30:14.950Z,48.60
2018-06-18T11:32:43.837Z,44.20
2018-06-18T11:35:12.736Z,43.00
2018-06-18T11:37:41.631Z,39.10
2018-06-18T11:40:10.330Z,37.60
2018-06-18T11:42:39.105Z,36.70
2018-06-18T11:45:07.945Z,34.70
2018-06-18T11:47:36.828Z,34.70
2018-06-18T11:50:05.799Z,34.40
2018-06-18T11:52:34.686Z,34.40
2018-06-18T11:55:03.596Z,35.00
2018-06-18T12:00:06.747Z,30.20
2018-06-18T12:02:40.687Z,31.60
2018-06-18T12:05:14.750Z,32.30
2018-06-18T12:07:48.726Z,33.00
2018-06-18T12:10:17.692Z,32.30
2018-06-18T12:12:46.507Z,32.00
2018-06-18T12:17:43.713Z,30.90
2018-06-18T12:20:14.665Z,30.00
2018-06-18T12:22:43.594Z,30.30
2018-06-18T12:25:12.375Z,30.90
2018-06-18T12:27:41.258Z,32.90
2018-06-18T12:30:10.190Z,31.90
2018-06-18T12:35:07.800Z,33.50
2018-06-18T12:37:36.700Z,31.00
2018-06-18T12:40:05.590Z,32.40
2018-06-18T12:42:34.653Z,29.80
2018-06-18T12:45:08.926Z,29.20
2018-06-18T12:47:43.152Z,29.60
2018-06-18T12:50:17.560Z,29.50
2018-06-18T12:53:06.033Z,30.00
2018-06-18T12:55:40.137Z,28.40
2018-06-18T12:58:09.096Z,27.60
2018-06-18T13:00:38.043Z,28.70
2018-06-18T13:03:11.858Z,27.80
2018-06-18T13:05:40.744Z,30.40
2018-06-18T13:10:37.954Z,32.00
2018-06-18T13:13:06.788Z,33.60
2018-06-18T13:15:36.134Z,34.90
2018-06-18T13:18:08.985Z,33.30
2018-06-18T13:20:37.747Z,32.50
2018-06-18T13:23:06.708Z,34.00
2018-06-18T13:25:35.584Z,33.70
2018-06-18T13:28:16.249Z,32.90
2018-06-18T13:30:45.572Z,34.10
2018-06-18T13:33:14.383Z,31.80
2018-06-18T13:35:43.169Z,30.70
2018-06-18T13:38:17.306Z,30.10
2018-06-18T13:43:25.383Z,33.80
2018-06-18T13:45:58.394Z,33.30
2018-06-18T13:48:32.508Z,31.70
2018-06-18T13:51:01.316Z,32.50
2018-06-18T13:53:30.232Z,31.30
2018-06-18T13:55:58.998Z,33.10
2018-06-18T13:58:27.813Z,35.20
2018-06-18T14:00:56.867Z,37.90
2018-06-18T14:03:25.642Z,38.70
2018-06-18T14:06:08.626Z,35.90
2018-06-18T14:08:37.377Z,34.50
2018-06-18T14:11:06.287Z,37.80
2018-06-18T14:13:35.323Z,35.30
2018-06-18T14:16:04.465Z,36.70
2018-06-18T14:18:33.335Z,37.70
2018-06-18T14:21:02.229Z,38.50
2018-06-18T14:23:31.160Z,35.00
2018-06-18T14:25:59.969Z,34.40
2018-06-18T14:28:29.131Z,35.90
2018-06-18T14:31:03.284Z,36.60
2018-06-18T14:33:37.499Z,36.00
2018-06-18T14:36:19.285Z,37.60
2018-06-18T14:38:53.400Z,36.90
2018-06-18T14:41:22.181Z,37.60
2018-06-18T14:43:51.141Z,38.20
2018-06-18T14:46:20.057Z,40.10
2018-06-18T14:48:48.986Z,38.80
2018-06-18T14:51:17.777Z,40.30
2018-06-18T14:53:46.847Z,41.70
2018-06-18T14:56:21.615Z,41.50
2018-06-18T14:59:10.122Z,40.60
2018-06-18T15:01:39.213Z,42.20
2018-06-18T15:04:08.180Z,41.60
2018-06-18T15:06:36.916Z,41.30
2018-06-18T15:09:09.089Z,40.40
2018-06-18T15:11:37.894Z,40.60
2018-06-18T15:14:06.696Z,40.70
2018-06-18T15:16:35.540Z,41.30
2018-06-18T15:19:04.452Z,40.90
2018-06-18T15:21:36.824Z,42.10
2018-06-18T15:24:09.022Z,43.10
2018-06-18T15:29:07.227Z,43.20
2018-06-18T15:31:36.149Z,42.30
2018-06-18T15:34:05.090Z,43.20
2018-06-18T15:36:33.969Z,43.50
2018-06-18T15:39:02.977Z,43.30
2018-06-18T15:41:31.825Z,44.70
2018-06-18T15:44:00.672Z,44.10
2018-06-18T15:46:33.317Z,44.10
2018-06-18T15:49:02.126Z,44.60
2018-06-18T15:51:31.076Z,44.30
2018-06-18T15:53:59.898Z,43.80
2018-06-18T15:56:28.677Z,42.60
2018-06-18T15:58:57.466Z,43.60
2018-06-18T16:01:26.355Z,42.90
2018-06-18T16:04:06.847Z,43.20
2018-06-18T16:07:06.220Z,41.70
2018-06-18T16:09:35.893Z,42.60
2018-06-18T16:12:04.732Z,43.00
2018-06-18T16:14:33.593Z,43.60
2018-06-18T16:17:02.582Z,43.50
2018-06-18T16:19:31.368Z,43.70
2018-06-18T16:22:00.218Z,44.00
2018-06-18T16:24:29.030Z,43.00
2018-06-18T16:26:57.842Z,44.00
2018-06-18T16:29:26.757Z,43.60
2018-06-18T16:31:55.536Z,43.60
2018-06-18T16:34:24.534Z,43.90
2018-06-18T16:36:53.354Z,44.20
2018-06-18T16:39:22.234Z,45.60
2018-06-18T16:41:56.407Z,45.50
2018-06-18T16:44:25.320Z,45.00
2018-06-18T16:46:54.230Z,45.20
2018-06-18T16:49:23.176Z,46.20
2018-06-18T16:51:52.275Z,47.10
2018-06-18T16:54:21.436Z,46.20
2018-06-18T16:56:50.366Z,46.90
2018-06-18T16:59:19.241Z,48.00
2018-06-18T17:01:48.063Z,46.50
2018-06-18T17:04:16.846Z,47.50
2018-06-18T17:06:51.122Z,46.90
2018-06-18T17:09:20.785Z,46.90
2018-06-18T17:11:49.599Z,47.80
2018-06-18T17:16:46.768Z,48.80
2018-06-18T17:19:15.704Z,48.80
2018-06-18T17:21:44.526Z,49.00
2018-06-18T17:24:13.244Z,49.30
2018-06-18T17:26:42.011Z,50.10
2018-06-18T17:29:10.887Z,49.80
2018-06-18T17:31:39.742Z,50.20
2018-06-18T17:34:08.661Z,50.20
2018-06-18T17:36:37.464Z,50.10
2018-06-18T17:39:09.535Z,50.30
2018-06-18T17:41:38.364Z,50.20
2018-06-18T17:44:07.283Z,50.60
2018-06-18T17:46:36.463Z,50.90
2018-06-18T17:49:05.542Z,50.80
2018-06-18T17:51:35.252Z,50.10
2018-06-18T17:54:04.059Z,49.80
2018-06-18T17:56:32.917Z,50.10
2018-06-18T17:59:01.807Z,50.10
2018-06-18T18:01:30.999Z,50.20
2018-06-18T18:04:00.847Z,50.90
2018-06-18T18:06:29.771Z,50.60
2018-06-18T18:08:58.769Z,51.00
2018-06-18T18:11:27.731Z,51.40
2018-06-18T18:13:56.537Z,50.90
2018-06-18T18:16:27.355Z,50.90
2018-06-18T18:18:56.161Z,50.10
2018-06-18T18:21:24.947Z,50.60
2018-06-18T18:23:53.998Z,51.00
2018-06-18T18:26:23.200Z,50.90
2018-06-18T18:28:52.054Z,51.00
2018-06-18T18:31:20.918Z,51.60
2018-06-18T18:33:49.925Z,51.40
2018-06-18T18:36:18.759Z,52.30
2018-06-18T18:38:47.578Z,52.30
2018-06-18T18:41:17.556Z,52.50
2018-06-18T18:43:46.368Z,52.40
2018-06-18T18:46:15.109Z,52.60
2018-06-18T18:48:43.934Z,53.10
2018-06-18T18:51:12.923Z,52.50
2018-06-18T18:53:41.744Z,53.00
2018-06-18T18:56:21.763Z,53.40
2018-06-18T18:59:29.180Z,53.80
2018-06-18T19:01:58.495Z,54.30
2018-06-18T19:04:38.136Z,54.50
2018-06-18T19:07:07.598Z,54.90
2018-06-18T19:09:43.349Z,55.50
2018-06-18T19:12:12.497Z,55.70
2018-06-18T19:14:41.479Z,56.00
2018-06-18T19:17:10.431Z,56.60
2018-06-18T19:19:44.908Z,56.90
2018-06-18T19:22:13.989Z,56.80
2018-06-18T19:24:43.788Z,57.20
2018-06-18T19:27:12.593Z,57.40
2018-06-18T19:29:41.625Z,57.80
2018-06-18T19:32:10.577Z,58.20
2018-06-18T19:34:42.805Z,58.50
2018-06-18T19:37:11.636Z,58.40
2018-06-18T19:39:43.493Z,58.70
2018-06-18T19:42:12.837Z,59.60
2018-06-18T19:44:47.007Z,60.10
2018-06-18T19:47:49.641Z,60.10
2018-06-18T19:50:18.861Z,60.30
2018-06-18T19:52:47.785Z,60.90
2018-06-18T19:55:21.883Z,61.20
2018-06-18T19:57:50.825Z,61.80
2018-06-18T20:02:48.463Z,63.10
2018-06-18T20:05:17.548Z,63.00
2018-06-18T20:07:57.021Z,62.90
2018-06-18T20:10:26.135Z,63.50
2018-06-18T20:12:55.238Z,63.70
2018-06-18T20:15:24.795Z,63.80
2018-06-18T20:17:57.443Z,64.20
2018-06-18T20:20:26.326Z,64.60
2018-06-18T20:22:55.133Z,64.60
2018-06-18T20:25:28.348Z,64.60
2018-06-18T20:27:57.119Z,65.50
2018-06-18T20:30:26.029Z,65.70
2018-06-18T20:32:54.859Z,65.60
2018-06-18T20:35:28.292Z,65.80
2018-06-18T20:37:57.490Z,66.30
2018-06-18T20:40:26.953Z,66.50
2018-06-18T20:42:56.125Z,66.70
2018-06-18T20:45:25.119Z,67.60
2018-06-18T20:47:53.980Z,66.90
2018-06-18T20:50:22.968Z,67.00
2018-06-18T20:52:51.741Z,67.60
2018-06-18T20:55:20.739Z,68.80
2018-06-18T20:57:49.717Z,68.40
2018-06-18T21:00:18.522Z,68.80
2018-06-18T21:02:48.884Z,69.40
2018-06-18T21:05:17.763Z,69.60
2018-06-18T21:07:46.834Z,70.20
2018-06-18T21:10:16.655Z,70.60
2018-06-18T21:12:45.471Z,71.30
2018-06-18T21:15:14.361Z,71.20
2018-06-18T21:17:43.335Z,71.90
2018-06-18T21:20:12.144Z,72.30
2018-06-18T21:22:41.185Z,72.90
2018-06-18T21:25:10.082Z,72.90
2018-06-18T21:27:38.907Z,73.40
2018-06-18T21:30:08.612Z,73.80
2018-06-18T21:32:37.686Z,74.00
2018-06-18T21:35:06.940Z,74.20
2018-06-18T21:37:35.937Z,74.40
2018-06-18T21:40:04.813Z,74.60
2018-06-18T21:42:33.704Z,74.80
2018-06-18T21:45:06.803Z,75.40
2018-06-18T21:47:35.636Z,75.70
2018-06-18T21:50:04.847Z,75.80
2018-06-18T21:52:33.775Z,76.00
2018-06-18T21:55:02.715Z,76.40
2018-06-18T22:00:00.150Z,76.90
2018-06-18T22:02:29.107Z,77.00
2018-06-18T22:04:58.118Z,76.80
2018-06-18T22:07:26.872Z,77.40
2018-06-18T22:09:55.947Z,77.60
2018-06-18T22:12:24.891Z,77.80
2018-06-18T22:14:53.881Z,78.40
2018-06-18T22:17:22.806Z,78.70
2018-06-18T22:19:51.970Z,78.80
2018-06-18T22:22:20.981Z,78.90
2018-06-18T22:24:50.034Z,79.20
2018-06-18T22:27:18.969Z,79.50
2018-06-18T22:29:47.909Z,79.70
2018-06-18T22:32:16.901Z,79.90
2018-06-18T22:34:45.857Z,80.70
2018-06-18T22:37:15.147Z,80.70
2018-06-18T22:39:44.192Z,80.70
2018-06-18T22:42:13.393Z,81.10
2018-06-18T22:44:42.377Z,81.10
2018-06-18T22:47:11.655Z,81.70
2018-06-18T22:49:40.630Z,81.40
2018-06-18T22:52:09.863Z,82.10
2018-06-18T22:57:11.417Z,82.80
2018-06-18T22:59:40.274Z,82.70
2018-06-18T23:02:10.490Z,83.10
2018-06-18T23:04:39.651Z,83.00
2018-06-18T23:07:08.806Z,83.30
2018-06-18T23:09:37.612Z,83.50
2018-06-18T23:12:06.973Z,83.70
2018-06-18T23:14:35.830Z,83.90
2018-06-18T23:17:04.939Z,84.00
2018-06-18T23:19:33.898Z,84.20
2018-06-18T23:22:02.764Z,84.20
2018-06-18T23:24:31.699Z,84.30
2018-06-18T23:27:00.666Z,84.70
2018-06-18T23:29:29.744Z,84.60
2018-06-18T23:31:58.840Z,85.10
2018-06-18T23:34:27.710Z,84.40
2018-06-18T23:36:56.625Z,84.50
2018-06-18T23:39:25.549Z,84.80
2018-06-18T23:41:56.392Z,84.70
2018-06-18T23:44:25.432Z,84.90
2018-06-18T23:46:54.322Z,85.50
2018-06-18T23:49:23.225Z,86.30
2018-06-18T23:51:52.149Z,86.40
2018-06-18T23:54:20.966Z,86.90
2018-06-18T23:56:49.957Z,87.10
2018-06-18T23:59:18.832Z,87.60
